createdAt,value
2023-04-10T00:01:17.612Z,77.22
2023-04-10T00:03:48.038Z,72.72
2023-04-10T00:06:17.248Z,82.25
2023-04-10T00:08:46.272Z,82.72
2023-04-10T00:11:15.367Z,75.18
2023-04-10T00:13:45.916Z,88.95
2023-04-10T00:16:15.022Z,77.13
2023-04-10T00:18:44.033Z,85.75
2023-04-10T00:21:13.108Z,87.97
2023-04-10T00:23:42.135Z,92.65
2023-04-10T00:26:11.139Z,88.90
2023-04-10T00:28:40.645Z,77.97
2023-04-10T00:31:11.198Z,74.90
2023-04-10T00:33:40.175Z,79.57
2023-04-10T00:36:09.597Z,70.22
2023-04-10T00:38:38.721Z,72.28
2023-04-10T00:41:08.412Z,74.95
2023-04-10T00:43:37.538Z,74.07
2023-04-10T00:46:07.236Z,76.45
2023-04-10T00:48:38.151Z,64.43
2023-04-10T00:51:08.776Z,59.13
2023-04-10T00:53:38.055Z,68.95
2023-04-10T00:56:08.814Z,60.45
2023-04-10T00:58:38.400Z,62.55
2023-04-10T01:01:10.650Z,61.15
2023-04-10T01:03:44.009Z,50.20
2023-04-10T01:06:20.627Z,59.00
2023-04-10T01:09:02.010Z,55.15
2023-04-10T01:11:46.468Z,49.85
2023-04-10T01:14:24.726Z,53.22
2023-04-10T01:16:59.070Z,53.95
2023-04-10T01:19:48.809Z,49.17
2023-04-10T01:22:18.900Z,60.33
2023-04-10T01:25:03.410Z,54.97
2023-04-10T01:27:46.767Z,48.15
2023-04-10T01:30:22.149Z,62.88
2023-04-10T01:32:55.335Z,54.70
2023-04-10T01:35:25.800Z,56.53
2023-04-10T01:37:56.665Z,51.97
2023-04-10T01:40:30.734Z,55.15
2023-04-10T01:43:05.307Z,53.10
2023-04-10T01:45:48.772Z,50.22
2023-04-10T01:48:21.393Z,55.90
2023-04-10T01:50:52.085Z,60.80
2023-04-10T01:53:21.691Z,53.15
2023-04-10T01:55:52.421Z,51.47
2023-04-10T01:58:22.261Z,55.53
2023-04-10T02:00:53.003Z,56.22
2023-04-10T02:03:23.358Z,54.05
2023-04-10T02:06:03.882Z,61.85
2023-04-10T02:08:39.827Z,64.07
2023-04-10T02:11:17.544Z,48.55
2023-04-10T02:13:48.990Z,59.50
2023-04-10T02:16:24.455Z,50.15
2023-04-10T02:18:56.785Z,56.17
2023-04-10T02:21:27.381Z,56.42
2023-04-10T02:23:59.608Z,62.92
2023-04-10T02:26:29.261Z,58.40
2023-04-10T02:28:59.362Z,53.22
2023-04-10T02:31:31.926Z,58.67
2023-04-10T02:34:01.915Z,60.63
2023-04-10T02:36:31.482Z,68.47
2023-04-10T02:39:01.567Z,59.88
2023-04-10T02:41:31.723Z,57.83
2023-04-10T02:44:04.163Z,56.33
2023-04-10T02:46:34.916Z,60.00
2023-04-10T02:49:04.834Z,59.40
2023-04-10T02:51:37.422Z,61.25
2023-04-10T02:54:07.613Z,67.82
2023-04-10T02:56:38.042Z,58.65
2023-04-10T02:59:07.133Z,62.83
2023-04-10T03:01:39.682Z,60.97
2023-04-10T03:04:09.416Z,57.70
2023-04-10T03:06:41.827Z,56.95
2023-04-10T03:09:11.170Z,61.70
2023-04-10T03:11:40.534Z,54.38
2023-04-10T03:14:12.584Z,52.30
2023-04-10T03:16:43.602Z,64.97
2023-04-10T03:19:12.863Z,52.47
2023-04-10T03:21:42.235Z,59.05
2023-04-10T03:24:11.528Z,58.05
2023-04-10T03:26:40.904Z,57.63
2023-04-10T03:29:09.916Z,53.10
2023-04-10T03:31:38.910Z,55.70
2023-04-10T03:34:09.490Z,48.47
2023-04-10T03:36:39.367Z,55.38
2023-04-10T03:39:08.604Z,55.65
2023-04-10T03:41:37.954Z,61.78
2023-04-10T03:44:09.245Z,56.05
2023-04-10T03:46:41.526Z,60.88
2023-04-10T03:49:18.109Z,51.88
2023-04-10T03:51:50.771Z,51.22
2023-04-10T03:54:20.498Z,52.83
2023-04-10T03:56:50.605Z,46.80
2023-04-10T03:59:21.618Z,55.05
2023-04-10T04:01:55.737Z,52.88
2023-04-10T04:04:28.342Z,52.08
2023-04-10T04:07:04.392Z,56.50
2023-04-10T04:10:12.868Z,57.83
2023-04-10T04:12:54.718Z,51.80
2023-04-10T04:15:38.160Z,52.30
2023-04-10T04:18:19.682Z,45.40
2023-04-10T04:20:59.285Z,51.67
2023-04-10T04:23:55.871Z,52.90
2023-04-10T04:26:49.722Z,52.83
2023-04-10T04:29:55.060Z,48.90
2023-04-10T04:32:46.496Z,41.83
2023-04-10T04:35:26.446Z,48.30
2023-04-10T04:38:16.864Z,48.15
2023-04-10T04:41:04.577Z,40.50
2023-04-10T04:44:01.426Z,47.70
2023-04-10T04:46:48.355Z,44.10
2023-04-10T04:49:26.896Z,42.20
2023-04-10T04:52:18.814Z,48.10
2023-04-10T04:55:01.870Z,48.70
2023-04-10T04:57:49.983Z,47.85
2023-04-10T05:00:47.316Z,41.40
2023-04-10T05:03:42.566Z,42.88
2023-04-10T05:06:35.203Z,39.60
2023-04-10T05:09:16.121Z,41.35
2023-04-10T05:12:06.393Z,34.22
2023-04-10T05:14:59.383Z,36.45
2023-04-10T05:17:51.327Z,26.45
2023-04-10T05:20:37.129Z,30.92
2023-04-10T05:23:29.427Z,29.73
2023-04-10T05:26:25.471Z,38.83
2023-04-10T05:29:13.590Z,35.05
2023-04-10T05:31:56.181Z,29.67
2023-04-10T05:34:45.595Z,36.70
2023-04-10T05:37:35.814Z,31.52
2023-04-10T05:40:24.142Z,30.67
2023-04-10T05:42:59.274Z,34.92
2023-04-10T05:45:38.034Z,26.85
2023-04-10T05:48:22.152Z,32.25
2023-04-10T05:51:20.507Z,31.20
2023-04-10T05:54:19.330Z,32.65
2023-04-10T05:57:06.112Z,28.98
2023-04-10T05:59:49.582Z,32.22
2023-04-10T06:02:32.373Z,29.10
2023-04-10T06:05:02.301Z,26.73
2023-04-10T06:07:34.972Z,30.83
2023-04-10T06:10:04.151Z,27.40
2023-04-10T06:12:37.138Z,26.35
2023-04-10T06:15:09.251Z,27.17
2023-04-10T06:17:45.694Z,33.15
2023-04-10T06:20:15.195Z,30.35
2023-04-10T06:22:44.539Z,28.42
2023-04-10T06:25:14.117Z,24.98
2023-04-10T06:27:43.541Z,27.05
2023-04-10T06:30:13.420Z,27.70
2023-04-10T06:32:44.886Z,24.85
2023-04-10T06:35:14.786Z,28.17
2023-04-10T06:37:44.916Z,28.42
2023-04-10T06:40:16.052Z,20.85
2023-04-10T06:42:45.176Z,27.25
2023-04-10T06:45:30.114Z,29.60
2023-04-10T06:48:00.906Z,27.75
2023-04-10T06:50:32.890Z,26.90
2023-04-10T06:53:02.586Z,30.37
2023-04-10T06:55:31.934Z,25.73
2023-04-10T06:58:01.198Z,28.73
2023-04-10T07:00:31.347Z,25.97
2023-04-10T07:03:02.163Z,29.20
2023-04-10T07:05:31.574Z,33.70
2023-04-10T07:08:00.712Z,31.07
2023-04-10T07:10:29.565Z,31.67
2023-04-10T07:12:59.092Z,31.50
2023-04-10T07:15:28.003Z,30.43
2023-04-10T07:17:57.123Z,32.33
2023-04-10T07:20:28.158Z,36.00
2023-04-10T07:22:57.165Z,39.93
2023-04-10T07:25:26.601Z,37.83
2023-04-10T07:27:55.650Z,34.10
2023-04-10T07:30:24.605Z,38.13
2023-04-10T07:32:53.757Z,38.23
2023-04-10T07:35:23.033Z,33.83
2023-04-10T07:37:54.714Z,37.47
2023-04-10T07:40:23.742Z,41.13
2023-04-10T07:42:53.887Z,33.30
2023-04-10T07:45:23.082Z,39.67
2023-04-10T07:47:52.169Z,39.10
2023-04-10T07:50:21.298Z,44.37
2023-04-10T07:52:52.802Z,41.27
2023-04-10T07:55:22.026Z,38.80
2023-04-10T07:57:52.456Z,41.00
2023-04-10T08:00:21.824Z,40.90
2023-04-10T08:02:51.238Z,41.10
2023-04-10T08:05:20.774Z,39.33
2023-04-10T08:07:49.849Z,47.40
2023-04-10T08:10:20.394Z,39.90
2023-04-10T08:12:49.506Z,38.10
2023-04-10T08:15:19.794Z,47.03
2023-04-10T08:17:48.960Z,37.27
2023-04-10T08:20:17.927Z,40.93
2023-04-10T08:22:47.049Z,37.03
2023-04-10T08:25:16.303Z,40.27
2023-04-10T08:27:46.602Z,33.27
2023-04-10T08:30:15.896Z,30.93
2023-04-10T08:32:44.977Z,36.43
2023-04-10T08:35:14.121Z,34.10
2023-04-10T08:37:49.697Z,33.83
2023-04-10T08:40:23.073Z,35.80
2023-04-10T08:42:53.557Z,33.17
2023-04-10T08:45:23.429Z,36.80
2023-04-10T08:47:53.789Z,31.10
2023-04-10T08:50:23.153Z,30.77
2023-04-10T08:52:56.541Z,33.43
2023-04-10T08:55:26.563Z,34.43
2023-04-10T08:58:00.963Z,32.60
2023-04-10T09:00:34.707Z,27.07
2023-04-10T09:03:05.025Z,25.93
2023-04-10T09:05:40.477Z,35.00
2023-04-10T09:08:15.092Z,37.10
2023-04-10T09:10:54.471Z,27.60
2023-04-10T09:14:25.958Z,26.70
2023-04-10T09:17:16.004Z,26.50
2023-04-10T09:19:50.239Z,25.47
2023-04-10T09:22:35.494Z,25.23
2023-04-10T09:25:06.012Z,29.03
2023-04-10T09:27:40.407Z,33.63
2023-04-10T09:30:36.362Z,29.73
2023-04-10T09:33:31.011Z,31.70
2023-04-10T09:37:45.216Z,30.93
2023-04-10T09:39:13.654Z,29.63
2023-04-10T09:41:54.986Z,32.30
2023-04-10T09:44:32.539Z,31.87
2023-04-10T09:47:19.030Z,28.17
2023-04-10T09:49:49.394Z,24.80
2023-04-10T09:52:22.946Z,20.30
2023-04-10T09:54:52.257Z,25.67
2023-04-10T09:57:23.137Z,21.27
2023-04-10T09:59:54.155Z,21.40
2023-04-10T10:02:26.480Z,23.73
2023-04-10T10:04:56.164Z,20.00
2023-04-10T10:07:26.261Z,20.13
2023-04-10T10:09:55.675Z,22.17
2023-04-10T10:12:31.449Z,21.07
2023-04-10T10:15:07.141Z,24.83
2023-04-10T10:17:47.042Z,21.53
2023-04-10T10:20:19.617Z,20.57
2023-04-10T10:22:51.520Z,21.20
2023-04-10T10:25:21.411Z,22.03
2023-04-10T10:27:53.659Z,20.30
2023-04-10T10:30:30.004Z,21.10
2023-04-10T10:33:02.290Z,25.73
2023-04-10T10:35:33.552Z,24.20
2023-04-10T10:38:06.097Z,21.47
2023-04-10T10:40:42.680Z,18.80
2023-04-10T10:43:21.782Z,17.27
2023-04-10T10:45:56.113Z,22.60
2023-04-10T10:48:26.944Z,21.57
2023-04-10T10:51:02.019Z,23.47
2023-04-10T10:53:40.710Z,20.30
2023-04-10T10:56:35.102Z,25.77
2023-04-10T10:59:04.362Z,19.33
2023-04-10T11:01:34.016Z,22.57
2023-04-10T11:04:39.675Z,19.73
2023-04-10T11:07:11.623Z,18.37
2023-04-10T11:09:51.950Z,23.53
2023-04-10T11:12:24.922Z,17.20
2023-04-10T11:15:00.495Z,18.77
2023-04-10T11:17:48.050Z,16.00
2023-04-10T11:20:19.646Z,18.70
2023-04-10T11:23:11.989Z,15.13
2023-04-10T11:25:51.652Z,16.07
2023-04-10T11:28:40.484Z,16.20
2023-04-10T11:31:22.215Z,14.70
2023-04-10T11:34:07.879Z,12.77
2023-04-10T11:36:48.708Z,13.93
2023-04-10T11:39:19.436Z,10.83
2023-04-10T11:41:49.873Z,12.03
2023-04-10T11:44:22.049Z,8.53
2023-04-10T11:46:52.358Z,12.57
2023-04-10T11:49:22.803Z,11.20
2023-04-10T11:51:54.778Z,11.60
2023-04-10T11:54:27.683Z,12.03
2023-04-10T11:57:05.942Z,12.63
2023-04-10T11:59:36.854Z,12.40
2023-04-10T12:02:11.878Z,11.93
2023-04-10T12:04:41.963Z,12.43
2023-04-10T12:07:13.686Z,14.33
2023-04-10T12:09:42.846Z,14.63
2023-04-10T12:12:12.377Z,13.70
2023-04-10T12:14:43.750Z,14.67
2023-04-10T12:17:15.992Z,9.10
2023-04-10T12:19:45.427Z,12.33
2023-04-10T12:22:17.101Z,10.03
2023-04-10T12:24:48.294Z,10.83
2023-04-10T12:27:20.681Z,15.10
2023-04-10T12:29:53.351Z,11.70
2023-04-10T12:32:24.241Z,13.30
2023-04-10T12:34:54.029Z,9.17
2023-04-10T12:37:24.539Z,10.20
2023-04-10T12:39:54.026Z,14.00
2023-04-10T12:42:27.286Z,11.37
2023-04-10T12:44:57.365Z,12.23
2023-04-10T12:47:28.184Z,13.33
2023-04-10T12:50:11.525Z,9.87
2023-04-10T12:52:43.923Z,10.30
2023-04-10T12:55:21.478Z,11.40
2023-04-10T12:57:55.349Z,10.90
2023-04-10T13:00:28.648Z,12.77
2023-04-10T13:03:08.726Z,8.73
2023-04-10T13:05:45.267Z,9.57
2023-04-10T13:08:18.377Z,12.80
2023-04-10T13:10:47.279Z,16.53
2023-04-10T13:13:16.955Z,9.47
2023-04-10T13:15:45.947Z,11.93
2023-04-10T13:18:14.975Z,13.70
2023-04-10T13:20:43.869Z,12.73
2023-04-10T13:23:14.283Z,11.63
2023-04-10T13:25:43.421Z,13.50
2023-04-10T13:28:12.499Z,12.50
2023-04-10T13:30:43.362Z,11.97
2023-04-10T13:33:12.459Z,12.77
2023-04-10T13:35:41.610Z,13.80
2023-04-10T13:38:11.801Z,14.20
2023-04-10T13:40:42.246Z,12.03
2023-04-10T13:43:11.154Z,16.37
2023-04-10T13:45:40.097Z,9.53
2023-04-10T13:48:09.096Z,9.60
2023-04-10T13:50:38.722Z,9.87
2023-04-10T13:53:10.344Z,12.80
2023-04-10T13:55:43.675Z,11.10
2023-04-10T13:58:14.428Z,10.83
2023-04-10T14:00:45.417Z,13.23
2023-04-10T14:03:14.977Z,13.77
2023-04-10T14:05:44.907Z,11.00
2023-04-10T14:08:15.880Z,12.10
2023-04-10T14:10:44.821Z,11.00
2023-04-10T14:13:15.381Z,10.00
2023-04-10T14:15:44.414Z,9.23
2023-04-10T14:18:14.901Z,10.50
2023-04-10T14:20:43.791Z,13.37
2023-04-10T14:23:18.457Z,10.80
2023-04-10T14:25:49.777Z,11.27
2023-04-10T14:28:20.986Z,8.90
2023-04-10T14:30:51.660Z,9.70
2023-04-10T14:33:21.358Z,13.73
2023-04-10T14:35:50.549Z,8.87
2023-04-10T14:38:19.511Z,8.40
2023-04-10T14:40:50.289Z,8.30
2023-04-10T14:43:21.028Z,12.73
2023-04-10T14:45:49.921Z,10.30
2023-04-10T14:48:19.857Z,11.20
2023-04-10T14:50:49.548Z,9.67
2023-04-10T14:53:18.460Z,8.70
2023-04-10T14:55:47.284Z,11.73
2023-04-10T14:58:16.363Z,9.63
2023-04-10T15:00:46.605Z,11.33
2023-04-10T15:03:15.563Z,10.90
2023-04-10T15:05:44.699Z,11.03
2023-04-10T15:08:13.704Z,12.40
2023-04-10T15:10:42.774Z,10.13
2023-04-10T15:13:11.704Z,10.50
2023-04-10T15:15:40.980Z,12.20
2023-04-10T15:18:11.284Z,14.23
2023-04-10T15:20:44.517Z,10.40
2023-04-10T15:23:13.341Z,12.17
2023-04-10T15:25:42.558Z,15.17
2023-04-10T15:28:11.417Z,11.67
2023-04-10T15:30:44.050Z,12.07
2023-04-10T15:33:14.441Z,13.07
2023-04-10T15:35:43.310Z,12.20
2023-04-10T15:38:14.243Z,11.30
2023-04-10T15:40:43.333Z,12.80
2023-04-10T15:43:12.813Z,11.57
2023-04-10T15:45:41.725Z,12.20
2023-04-10T15:48:10.737Z,14.80
2023-04-10T15:50:41.561Z,11.43
2023-04-10T15:53:10.698Z,9.83
2023-04-10T15:55:41.524Z,11.43
2023-04-10T15:58:10.369Z,10.67
2023-04-10T16:00:39.233Z,9.20
2023-04-10T16:03:08.363Z,12.77
2023-04-10T16:05:37.362Z,10.53
2023-04-10T16:08:07.695Z,10.03
2023-04-10T16:10:36.695Z,9.73
2023-04-10T16:13:07.038Z,10.43
2023-04-10T16:15:39.528Z,9.60
2023-04-10T16:18:09.052Z,13.63
2023-04-10T16:20:37.952Z,10.30
2023-04-10T16:23:08.179Z,12.03
2023-04-10T16:25:37.066Z,11.30
2023-04-10T16:28:08.149Z,9.13
2023-04-10T16:30:39.597Z,13.10
2023-04-10T16:33:08.491Z,9.70
2023-04-10T16:35:37.380Z,11.77
2023-04-10T16:38:07.739Z,10.23
2023-04-10T16:40:36.511Z,10.50
2023-04-10T16:43:05.503Z,11.07
2023-04-10T16:45:34.357Z,10.87
2023-04-10T16:48:03.395Z,11.80
2023-04-10T16:50:36.957Z,10.00
2023-04-10T16:54:03.939Z,11.57
2023-04-10T16:56:37.444Z,9.83
2023-04-10T16:59:06.417Z,10.77
2023-04-10T17:01:39.761Z,10.77
2023-04-10T17:04:09.367Z,10.10
2023-04-10T17:06:38.408Z,12.13
2023-04-10T17:09:07.277Z,11.20
2023-04-10T17:11:37.764Z,13.47
2023-04-10T17:14:07.483Z,11.80
2023-04-10T17:16:36.337Z,11.63
2023-04-10T17:19:05.384Z,12.10
2023-04-10T17:21:34.789Z,14.57
2023-04-10T17:24:03.970Z,10.87
2023-04-10T17:26:33.027Z,10.43
2023-04-10T17:29:03.241Z,11.27
2023-04-10T17:31:32.207Z,13.17
2023-04-10T17:34:01.069Z,10.40
2023-04-10T17:36:30.139Z,11.00
2023-04-10T17:38:59.634Z,9.27
2023-04-10T17:41:28.941Z,17.50
2023-04-10T17:43:57.783Z,12.77
2023-04-10T17:46:28.061Z,13.70
2023-04-10T17:49:01.463Z,13.10
2023-04-10T17:51:31.656Z,16.03
2023-04-10T17:54:01.008Z,14.00
2023-04-10T17:56:30.328Z,13.40
2023-04-10T17:59:00.628Z,16.07
2023-04-10T18:01:31.248Z,16.87
2023-04-10T18:04:02.888Z,16.13
2023-04-10T18:06:32.288Z,16.50
2023-04-10T18:09:01.141Z,22.93
2023-04-10T18:11:30.108Z,19.97
2023-04-10T18:13:59.004Z,18.03
2023-04-10T18:16:29.925Z,20.37
2023-04-10T18:19:07.362Z,21.03
2023-04-10T18:21:36.214Z,13.90
2023-04-10T18:24:05.611Z,15.67
2023-04-10T18:26:35.008Z,16.23
2023-04-10T18:29:09.640Z,17.30
2023-04-10T18:31:39.831Z,16.77
2023-04-10T18:34:09.006Z,18.73
2023-04-10T18:36:37.913Z,14.67
2023-04-10T18:39:06.918Z,11.80
2023-04-10T18:41:35.945Z,13.13
2023-04-10T18:44:05.733Z,14.40
2023-04-10T18:46:34.999Z,10.87
2023-04-10T18:49:30.278Z,13.80
2023-04-10T18:51:59.366Z,13.83
2023-04-10T18:54:28.279Z,11.93
2023-04-10T18:56:57.643Z,15.73
2023-04-10T18:59:27.741Z,12.50
2023-04-10T19:01:57.005Z,13.23
2023-04-10T19:04:26.218Z,12.50
2023-04-10T19:06:56.741Z,13.80
2023-04-10T19:09:25.714Z,13.57
2023-04-10T19:11:55.053Z,13.50
2023-04-10T19:14:24.040Z,16.03
2023-04-10T19:16:52.773Z,18.43
2023-04-10T19:19:21.678Z,12.43
2023-04-10T19:21:50.583Z,11.17
2023-04-10T19:24:20.841Z,12.30
2023-04-10T19:26:49.774Z,12.23
2023-04-10T19:29:18.667Z,9.83
2023-04-10T19:31:47.712Z,10.73
2023-04-10T19:34:16.685Z,14.80
2023-04-10T19:36:45.544Z,11.87
2023-04-10T19:39:14.395Z,10.77
2023-04-10T19:41:44.679Z,10.40
2023-04-10T19:44:13.563Z,10.30
2023-04-10T19:46:42.630Z,10.63
2023-04-10T19:49:11.507Z,10.50
2023-04-10T19:51:40.419Z,9.10
2023-04-10T19:54:09.239Z,9.30
2023-04-10T19:56:38.246Z,10.93
2023-04-10T19:59:10.559Z,10.47
2023-04-10T20:01:40.770Z,11.10
2023-04-10T20:04:09.804Z,8.57
2023-04-10T20:06:38.680Z,17.30
2023-04-10T20:09:07.532Z,15.13
2023-04-10T20:11:41.517Z,11.37
2023-04-10T20:14:11.799Z,12.20
2023-04-10T20:16:41.213Z,9.00
2023-04-10T20:19:10.101Z,10.30
2023-04-10T20:21:38.969Z,9.43
2023-04-10T20:24:08.125Z,10.90
2023-04-10T20:26:37.050Z,11.83
2023-04-10T20:29:05.923Z,12.17
2023-04-10T20:31:36.175Z,10.77
2023-04-10T20:34:05.076Z,8.17
2023-04-10T20:36:35.773Z,10.13
2023-04-10T20:39:04.746Z,11.67
2023-04-10T20:41:33.608Z,8.50
2023-04-10T20:44:04.576Z,11.00
2023-04-10T20:46:33.404Z,8.00
2023-04-10T20:49:04.644Z,8.90
2023-04-10T20:51:33.781Z,8.53
2023-04-10T20:54:02.561Z,12.30
2023-04-10T20:56:43.785Z,7.93
2023-04-10T20:59:13.116Z,10.40
2023-04-10T21:01:42.068Z,9.30
2023-04-10T21:04:14.056Z,10.00
2023-04-10T21:06:43.374Z,7.57
2023-04-10T21:09:12.150Z,10.63
2023-04-10T21:11:41.847Z,7.73
2023-04-10T21:14:10.875Z,10.37
2023-04-10T21:16:42.519Z,7.20
2023-04-10T21:19:13.417Z,8.60
2023-04-10T21:21:42.308Z,7.87
2023-04-10T21:24:11.160Z,9.57
2023-04-10T21:26:40.051Z,9.33
2023-04-10T21:29:09.072Z,9.17
2023-04-10T21:31:39.166Z,8.97
2023-04-10T21:34:08.032Z,8.67
2023-04-10T21:36:39.356Z,8.13
2023-04-10T21:39:09.427Z,9.40
2023-04-10T21:41:38.695Z,9.87
2023-04-10T21:44:07.995Z,10.40
2023-04-10T21:46:36.956Z,8.20
2023-04-10T21:49:05.800Z,11.63
2023-04-10T21:51:34.900Z,10.00
2023-04-10T21:54:05.192Z,9.63
2023-04-10T21:56:35.615Z,9.70
2023-04-10T21:59:05.032Z,10.20
2023-04-10T22:01:34.722Z,8.27
2023-04-10T22:04:03.843Z,8.17
2023-04-10T22:06:33.082Z,9.77
2023-04-10T22:09:01.904Z,8.17
2023-04-10T22:11:33.390Z,8.30
2023-04-10T22:14:09.070Z,9.90
2023-04-10T22:16:45.355Z,10.30
2023-04-10T22:19:14.458Z,10.03
2023-04-10T22:21:43.396Z,8.53
2023-04-10T22:24:12.275Z,7.13
2023-04-10T22:26:45.970Z,9.87
2023-04-10T22:29:15.069Z,9.97
2023-04-10T22:31:44.273Z,8.07
2023-04-10T22:34:13.178Z,7.20
2023-04-10T22:36:44.122Z,10.23
2023-04-10T22:39:13.262Z,10.70
2023-04-10T22:41:44.045Z,9.00
2023-04-10T22:44:13.048Z,9.60
2023-04-10T22:46:42.113Z,9.43
2023-04-10T22:49:11.358Z,10.20
2023-04-10T22:51:40.453Z,10.33
2023-04-10T22:54:10.402Z,9.80
2023-04-10T22:56:39.567Z,8.27
2023-04-10T22:59:09.742Z,10.03
2023-04-10T23:01:38.732Z,15.43
2023-04-10T23:04:10.220Z,12.60
2023-04-10T23:06:39.894Z,10.13
2023-04-10T23:09:08.712Z,9.00
2023-04-10T23:11:37.775Z,9.67
2023-04-10T23:14:08.129Z,9.90
2023-04-10T23:16:37.009Z,13.20
2023-04-10T23:19:06.111Z,8.80
2023-04-10T23:21:34.932Z,11.80
2023-04-10T23:24:03.970Z,10.23
2023-04-10T23:26:32.921Z,10.00
2023-04-10T23:29:02.120Z,11.73
2023-04-10T23:31:32.365Z,8.87
2023-04-10T23:34:01.314Z,10.07
2023-04-10T23:36:30.251Z,9.30
2023-04-10T23:38:59.240Z,8.77
2023-04-10T23:41:28.059Z,9.00
2023-04-10T23:43:57.024Z,9.40
2023-04-10T23:46:25.922Z,8.97
2023-04-10T23:48:56.806Z,10.60
2023-04-10T23:51:27.065Z,9.10
2023-04-10T23:53:55.906Z,10.87
2023-04-10T23:56:29.101Z,9.83
2023-04-10T23:58:58.148Z,10.13
